sensor_id;sensor_type;location;lat;lon;timestamp;temperature;humidity
5027;DHT22;2532;52.480;13.354;2023-07-31T04:02:00;18.00;99.90
5027;DHT22;2532;52.480;13.354;2023-07-31T04:04:27;18.00;99.90
5027;DHT22;2532;52.480;13.354;2023-07-31T04:06:54;18.00;99.90
5027;DHT22;2532;52.480;13.354;2023-07-31T04:09:21;18.00;99.90
5027;DHT22;2532;52.480;13.354;2023-07-31T04:11:48;18.00;99.90
5027;DHT22;2532;52.480;13.354;2023-07-31T04:14:15;18.00;99.90
5027;DHT22;2532;52.480;13.354;2023-07-31T04:16:41;18.00;99.90
5027;DHT22;2532;52.480;13.354;2023-07-31T04:19:10;18.00;99.90
5027;DHT22;2532;52.480;13.354;2023-07-31T04:21:42;18.00;99.90
5027;DHT22;2532;52.480;13.354;2023-07-31T04:24:08;18.10;99.90
5027;DHT22;2532;52.480;13.354;2023-07-31T04:26:35;18.00;99.90
5027;DHT22;2532;52.480;13.354;2023-07-31T04:29:02;18.10;99.90
5027;DHT22;2532;52.480;13.354;2023-07-31T04:31:29;18.10;99.90
5027;DHT22;2532;52.480;13.354;2023-07-31T04:33:56;18.10;99.90
5027;DHT22;2532;52.480;13.354;2023-07-31T04:36:24;18.10;99.90
5027;DHT22;2532;52.480;13.354;2023-07-31T04:38:51;18.10;99.90
5027;DHT22;2532;52.480;13.354;2023-07-31T04:41:18;18.10;99.90
5027;DHT22;2532;52.480;13.354;2023-07-31T04:43:45;18.10;99.90
5027;DHT22;2532;52.480;13.354;2023-07-31T04:46:12;18.10;99.90
5027;DHT22;2532;52.480;13.354;2023-07-31T04:48:39;18.10;99.90
5027;DHT22;2532;52.480;13.354;2023-07-31T04:51:06;18.10;99.90
5027;DHT22;2532;52.480;13.354;2023-07-31T04:53:34;18.10;99.90
5027;DHT22;2532;52.480;13.354;2023-07-31T04:56:01;18.10;99.90
5027;DHT22;2532;52.480;13.354;2023-07-31T04:58:28;18.10;99.90
5027;DHT22;2532;52.480;13.354;2023-07-31T05:00:55;18.20;99.90
5027;DHT22;2532;52.480;13.354;2023-07-31T05:03:22;18.20;99.90
5027;DHT22;2532;52.480;13.354;2023-07-31T05:05:49;18.20;99.90
5027;DHT22;2532;52.480;13.354;2023-07-31T05:08:16;18.20;99.90
5027;DHT22;2532;52.480;13.354;2023-07-31T05:10:44;18.20;99.90
5027;DHT22;2532;52.480;13.354;2023-07-31T05:13:11;18.20;99.90
5027;DHT22;2532;52.480;13.354;2023-07-31T05:15:38;18.20;99.90
5027;DHT22;2532;52.480;13.354;2023-07-31T05:18:05;18.30;99.90
5027;DHT22;2532;52.480;13.354;2023-07-31T05:20:32;18.30;99.90
5027;DHT22;2532;52.480;13.354;2023-07-31T05:22:59;18.30;99.90
5027;DHT22;2532;52.480;13.354;2023-07-31T05:25:26;18.40;99.90
5027;DHT22;2532;52.480;13.354;2023-07-31T05:27:54;18.40;99.90
5027;DHT22;2532;52.480;13.354;2023-07-31T05:30:21;18.40;99.90
5027;DHT22;2532;52.480;13.354;2023-07-31T05:32:48;18.40;99.90
5027;DHT22;2532;52.480;13.354;2023-07-31T05:35:15;18.40;99.90
5027;DHT22;2532;52.480;13.354;2023-07-31T05:37:42;18.40;99.90
5027;DHT22;2532;52.480;13.354;2023-07-31T05:40:10;18.40;99.90
5027;DHT22;2532;52.480;13.354;2023-07-31T05:42:37;18.40;99.90
5027;DHT22;2532;52.480;13.354;2023-07-31T05:45:07;18.40;99.90
5027;DHT22;2532;52.480;13.354;2023-07-31T05:47:34;18.40;99.90
5027;DHT22;2532;52.480;13.354;2023-07-31T05:50:01;18.40;99.90
5027;DHT22;2532;52.480;13.354;2023-07-31T05:52:28;18.40;99.90
5027;DHT22;2532;52.480;13.354;2023-07-31T05:54:55;18.50;99.90
5027;DHT22;2532;52.480;13.354;2023-07-31T05:57:22;18.50;99.90
5027;DHT22;2532;52.480;13.354;2023-07-31T05:59:49;18.50;99.90
5027;DHT22;2532;52.480;13.354;2023-07-31T06:02:17;18.50;99.90
5027;DHT22;2532;52.480;13.354;2023-07-31T06:04:44;18.50;99.90
5027;DHT22;2532;52.480;13.354;2023-07-31T06:07:11;18.60;99.90
5027;DHT22;2532;52.480;13.354;2023-07-31T06:09:38;18.60;99.90
5027;DHT22;2532;52.480;13.354;2023-07-31T06:12:06;18.60;99.90
5027;DHT22;2532;52.480;13.354;2023-07-31T06:14:33;18.60;99.90
5027;DHT22;2532;52.480;13.354;2023-07-31T06:16:59;18.60;99.90
5027;DHT22;2532;52.480;13.354;2023-07-31T06:19:28;18.60;99.90
5027;DHT22;2532;52.480;13.354;2023-07-31T06:21:55;18.60;99.90
5027;DHT22;2532;52.480;13.354;2023-07-31T06:24:21;18.60;99.90
5027;DHT22;2532;52.480;13.354;2023-07-31T06:26:49;18.60;99.90
5027;DHT22;2532;52.480;13.354;2023-07-31T06:29:16;18.60;99.90
5027;DHT22;2532;52.480;13.354;2023-07-31T06:31:43;18.60;99.90
5027;DHT22;2532;52.480;13.354;2023-07-31T06:34:10;18.60;99.90
5027;DHT22;2532;52.480;13.354;2023-07-31T06:36:38;18.70;99.90
5027;DHT22;2532;52.480;13.354;2023-07-31T06:39:05;18.70;99.90
5027;DHT22;2532;52.480;13.354;2023-07-31T06:41:32;18.70;99.90
5027;DHT22;2532;52.480;13.354;2023-07-31T06:43:59;18.80;99.90
5027;DHT22;2532;52.480;13.354;2023-07-31T06:46:26;18.80;99.90
5027;DHT22;2532;52.480;13.354;2023-07-31T06:48:53;18.80;99.90
5027;DHT22;2532;52.480;13.354;2023-07-31T06:51:20;18.80;99.90
5027;DHT22;2532;52.480;13.354;2023-07-31T06:53:49;18.90;99.90
5027;DHT22;2532;52.480;13.354;2023-07-31T06:56:16;18.90;99.90
5027;DHT22;2532;52.480;13.354;2023-07-31T06:58:42;18.90;99.90
5027;DHT22;2532;52.480;13.354;2023-07-31T07:01:09;19.00;99.90
5027;DHT22;2532;52.480;13.354;2023-07-31T07:03:36;19.00;99.90
5027;DHT22;2532;52.480;13.354;2023-07-31T07:06:03;19.00;99.90
5027;DHT22;2532;52.480;13.354;2023-07-31T07:08:31;19.10;99.90
5027;DHT22;2532;52.480;13.354;2023-07-31T07:10:59;19.10;99.90
5027;DHT22;2532;52.480;13.354;2023-07-31T07:13:26;19.10;99.90
5027;DHT22;2532;52.480;13.354;2023-07-31T07:15:53;19.10;99.90
5027;DHT22;2532;52.480;13.354;2023-07-31T07:18:20;19.10;99.90
5027;DHT22;2532;52.480;13.354;2023-07-31T07:20:50;19.00;99.90
5027;DHT22;2532;52.480;13.354;2023-07-31T07:23:17;19.00;99.90
5027;DHT22;2532;52.480;13.354;2023-07-31T07:25:46;19.10;99.90
5027;DHT22;2532;52.480;13.354;2023-07-31T07:28:15;19.00;99.90
5027;DHT22;2532;52.480;13.354;2023-07-31T07:30:42;19.00;99.90
5027;DHT22;2532;52.480;13.354;2023-07-31T07:33:09;19.00;99.90
5027;DHT22;2532;52.480;13.354;2023-07-31T07:35:36;19.00;99.90
5027;DHT22;2532;52.480;13.354;2023-07-31T07:38:03;19.00;99.90
5027;DHT22;2532;52.480;13.354;2023-07-31T07:40:29;19.00;99.90
5027;DHT22;2532;52.480;13.354;2023-07-31T07:42:56;19.10;99.90
5027;DHT22;2532;52.480;13.354;2023-07-31T07:45:27;19.20;99.90
5027;DHT22;2532;52.480;13.354;2023-07-31T07:47:54;19.20;99.90
5027;DHT22;2532;52.480;13.354;2023-07-31T07:50:21;19.30;99.90
5027;DHT22;2532;52.480;13.354;2023-07-31T07:52:47;19.30;99.90
5027;DHT22;2532;52.480;13.354;2023-07-31T07:55:14;19.30;99.90
5027;DHT22;2532;52.480;13.354;2023-07-31T07:57:41;19.40;99.90
5027;DHT22;2532;52.480;13.354;2023-07-31T08:00:10;19.40;99.90
5027;DHT22;2532;52.480;13.354;2023-07-31T08:02:38;19.40;99.90
5027;DHT22;2532;52.480;13.354;2023-07-31T08:05:06;19.30;99.90
5027;DHT22;2532;52.480;13.354;2023-07-31T08:07:33;19.30;99.90
5027;DHT22;2532;52.480;13.354;2023-07-31T08:10:00;19.30;99.90
5027;DHT22;2532;52.480;13.354;2023-07-31T08:12:27;19.30;99.90
5027;DHT22;2532;52.480;13.354;2023-07-31T08:14:54;19.30;99.90
5027;DHT22;2532;52.480;13.354;2023-07-31T08:17:21;19.30;99.90
5027;DHT22;2532;52.480;13.354;2023-07-31T08:19:50;19.30;99.90
5027;DHT22;2532;52.480;13.354;2023-07-31T08:22:17;19.20;99.90
5027;DHT22;2532;52.480;13.354;2023-07-31T08:24:44;19.30;99.90
5027;DHT22;2532;52.480;13.354;2023-07-31T08:27:11;19.30;99.90
5027;DHT22;2532;52.480;13.354;2023-07-31T08:29:38;19.30;99.90
5027;DHT22;2532;52.480;13.354;2023-07-31T08:32:05;19.30;99.90
5027;DHT22;2532;52.480;13.354;2023-07-31T08:34:32;19.30;99.90
5027;DHT22;2532;52.480;13.354;2023-07-31T08:37:01;19.30;99.90
5027;DHT22;2532;52.480;13.354;2023-07-31T08:39:27;19.40;99.90
5027;DHT22;2532;52.480;13.354;2023-07-31T08:41:58;19.40;99.90
5027;DHT22;2532;52.480;13.354;2023-07-31T08:44:25;19.50;99.90
5027;DHT22;2532;52.480;13.354;2023-07-31T08:46:53;19.50;99.90
5027;DHT22;2532;52.480;13.354;2023-07-31T08:49:20;19.50;99.90
5027;DHT22;2532;52.480;13.354;2023-07-31T08:51:50;19.50;99.90
5027;DHT22;2532;52.480;13.354;2023-07-31T08:54:20;19.50;99.90
5027;DHT22;2532;52.480;13.354;2023-07-31T08:56:47;19.50;99.90
5027;DHT22;2532;52.480;13.354;2023-07-31T08:59:15;19.50;99.90
5027;DHT22;2532;52.480;13.354;2023-07-31T09:01:47;19.50;99.90
5027;DHT22;2532;52.480;13.354;2023-07-31T09:04:16;19.50;99.90
5027;DHT22;2532;52.480;13.354;2023-07-31T09:06:45;19.60;99.90
5027;DHT22;2532;52.480;13.354;2023-07-31T09:09:13;19.60;99.90
5027;DHT22;2532;52.480;13.354;2023-07-31T09:11:42;19.60;99.90
5027;DHT22;2532;52.480;13.354;2023-07-31T09:14:10;19.70;99.90
5027;DHT22;2532;52.480;13.354;2023-07-31T09:16:51;19.80;99.90
5027;DHT22;2532;52.480;13.354;2023-07-31T09:19:25;19.80;99.90
5027;DHT22;2532;52.480;13.354;2023-07-31T09:21:52;19.90;99.90
5027;DHT22;2532;52.480;13.354;2023-07-31T09:24:25;19.90;99.90
5027;DHT22;2532;52.480;13.354;2023-07-31T09:26:55;19.90;99.90
5027;DHT22;2532;52.480;13.354;2023-07-31T09:29:23;19.90;99.90
5027;DHT22;2532;52.480;13.354;2023-07-31T09:31:50;19.90;99.90
5027;DHT22;2532;52.480;13.354;2023-07-31T09:34:17;19.90;99.90
5027;DHT22;2532;52.480;13.354;2023-07-31T09:36:46;19.80;99.90
5027;DHT22;2532;52.480;13.354;2023-07-31T09:39:14;19.80;99.90
5027;DHT22;2532;52.480;13.354;2023-07-31T09:41:47;19.80;99.90
5027;DHT22;2532;52.480;13.354;2023-07-31T09:44:15;19.70;99.90
5027;DHT22;2532;52.480;13.354;2023-07-31T09:46:42;19.70;99.90
5027;DHT22;2532;52.480;13.354;2023-07-31T09:49:10;19.70;99.90
5027;DHT22;2532;52.480;13.354;2023-07-31T09:51:37;19.70;99.90
5027;DHT22;2532;52.480;13.354;2023-07-31T09:54:11;19.70;99.90
5027;DHT22;2532;52.480;13.354;2023-07-31T09:56:42;19.70;99.90
5027;DHT22;2532;52.480;13.354;2023-07-31T09:59:12;19.70;99.90
5027;DHT22;2532;52.480;13.354;2023-07-31T10:01:42;19.70;99.90
5027;DHT22;2532;52.480;13.354;2023-07-31T10:04:09;19.80;99.90
5027;DHT22;2532;52.480;13.354;2023-07-31T10:06:38;19.80;99.90
5027;DHT22;2532;52.480;13.354;2023-07-31T10:09:07;19.80;99.90
5027;DHT22;2532;52.480;13.354;2023-07-31T10:11:38;19.80;99.90
5027;DHT22;2532;52.480;13.354;2023-07-31T10:14:07;19.90;99.90
5027;DHT22;2532;52.480;13.354;2023-07-31T10:16:38;20.00;99.90
5027;DHT22;2532;52.480;13.354;2023-07-31T10:19:08;20.00;99.90
5027;DHT22;2532;52.480;13.354;2023-07-31T10:21:36;20.10;99.90
5027;DHT22;2532;52.480;13.354;2023-07-31T10:24:04;20.10;99.90
5027;DHT22;2532;52.480;13.354;2023-07-31T10:26:32;20.00;99.90
5027;DHT22;2532;52.480;13.354;2023-07-31T10:28:59;20.10;99.90
5027;DHT22;2532;52.480;13.354;2023-07-31T10:31:27;20.10;99.90
5027;DHT22;2532;52.480;13.354;2023-07-31T10:33:56;20.10;99.90
5027;DHT22;2532;52.480;13.354;2023-07-31T10:36:25;20.20;99.90
5027;DHT22;2532;52.480;13.354;2023-07-31T10:38:52;20.30;99.90
5027;DHT22;2532;52.480;13.354;2023-07-31T10:41:28;20.40;99.90
5027;DHT22;2532;52.480;13.354;2023-07-31T10:43:57;20.50;99.90
5027;DHT22;2532;52.480;13.354;2023-07-31T10:46:24;20.60;99.90
5027;DHT22;2532;52.480;13.354;2023-07-31T10:48:57;20.70;99.90
5027;DHT22;2532;52.480;13.354;2023-07-31T10:51:32;20.90;99.90
5027;DHT22;2532;52.480;13.354;2023-07-31T10:54:11;21.10;99.90
5027;DHT22;2532;52.480;13.354;2023-07-31T10:56:38;21.20;99.90
5027;DHT22;2532;52.480;13.354;2023-07-31T10:59:05;21.40;99.90
5027;DHT22;2532;52.480;13.354;2023-07-31T11:01:52;21.50;99.90
5027;DHT22;2532;52.480;13.354;2023-07-31T11:04:22;21.60;99.90
5027;DHT22;2532;52.480;13.354;2023-07-31T11:06:58;21.80;99.90
5027;DHT22;2532;52.480;13.354;2023-07-31T11:09:28;21.90;99.90
5027;DHT22;2532;52.480;13.354;2023-07-31T11:11:57;22.00;99.90
5027;DHT22;2532;52.480;13.354;2023-07-31T11:14:24;22.10;99.90
5027;DHT22;2532;52.480;13.354;2023-07-31T11:16:51;22.10;99.90
5027;DHT22;2532;52.480;13.354;2023-07-31T11:19:22;22.10;99.90
5027;DHT22;2532;52.480;13.354;2023-07-31T11:21:50;22.10;99.90
5027;DHT22;2532;52.480;13.354;2023-07-31T11:24:19;22.10;99.90
5027;DHT22;2532;52.480;13.354;2023-07-31T11:26:50;22.20;99.90
5027;DHT22;2532;52.480;13.354;2023-07-31T11:29:17;22.30;99.90
5027;DHT22;2532;52.480;13.354;2023-07-31T11:31:44;22.20;99.90
5027;DHT22;2532;52.480;13.354;2023-07-31T11:34:12;22.40;99.90
5027;DHT22;2532;52.480;13.354;2023-07-31T11:36:39;22.40;99.80
5027;DHT22;2532;52.480;13.354;2023-07-31T11:39:07;22.50;99.90
5027;DHT22;2532;52.480;13.354;2023-07-31T11:41:35;22.50;99.20
5027;DHT22;2532;52.480;13.354;2023-07-31T11:44:02;22.50;98.60
5027;DHT22;2532;52.480;13.354;2023-07-31T11:46:30;22.40;98.50
5027;DHT22;2532;52.480;13.354;2023-07-31T11:48:59;22.40;98.20
5027;DHT22;2532;52.480;13.354;2023-07-31T11:51:27;22.40;98.40
5027;DHT22;2532;52.480;13.354;2023-07-31T11:53:57;22.30;98.30
5027;DHT22;2532;52.480;13.354;2023-07-31T11:56:25;22.30;98.60
5027;DHT22;2532;52.480;13.354;2023-07-31T11:58:56;22.40;98.60
5027;DHT22;2532;52.480;13.354;2023-07-31T12:01:24;22.30;98.60
5027;DHT22;2532;52.480;13.354;2023-07-31T12:03:54;22.30;98.70
5027;DHT22;2532;52.480;13.354;2023-07-31T12:06:21;22.30;98.90
5027;DHT22;2532;52.480;13.354;2023-07-31T12:08:48;22.30;98.70
5027;DHT22;2532;52.480;13.354;2023-07-31T12:11:15;22.20;98.80
5027;DHT22;2532;52.480;13.354;2023-07-31T12:13:43;22.40;98.90
5027;DHT22;2532;52.480;13.354;2023-07-31T12:16:12;22.50;98.70
5027;DHT22;2532;52.480;13.354;2023-07-31T12:18:39;22.50;98.40
5027;DHT22;2532;52.480;13.354;2023-07-31T12:21:07;22.50;98.20
5027;DHT22;2532;52.480;13.354;2023-07-31T12:23:36;22.50;98.20
5027;DHT22;2532;52.480;13.354;2023-07-31T12:26:05;22.60;98.20
5027;DHT22;2532;52.480;13.354;2023-07-31T12:28:35;22.60;97.90
5027;DHT22;2532;52.480;13.354;2023-07-31T12:31:04;22.50;97.60
5027;DHT22;2532;52.480;13.354;2023-07-31T12:33:34;22.60;97.70
5027;DHT22;2532;52.480;13.354;2023-07-31T12:36:02;22.60;97.80
5027;DHT22;2532;52.480;13.354;2023-07-31T12:38:29;22.70;97.70
5027;DHT22;2532;52.480;13.354;2023-07-31T12:40:56;22.70;97.80
5027;DHT22;2532;52.480;13.354;2023-07-31T12:43:23;22.90;97.90
5027;DHT22;2532;52.480;13.354;2023-07-31T12:45:50;22.90;97.90
5027;DHT22;2532;52.480;13.354;2023-07-31T12:48:17;23.10;97.60
5027;DHT22;2532;52.480;13.354;2023-07-31T12:50:45;23.10;97.60
5027;DHT22;2532;52.480;13.354;2023-07-31T12:53:12;23.10;97.60
5027;DHT22;2532;52.480;13.354;2023-07-31T12:55:39;23.10;97.50
5027;DHT22;2532;52.480;13.354;2023-07-31T12:58:06;23.00;97.10
5027;DHT22;2532;52.480;13.354;2023-07-31T13:00:33;23.00;97.30
5027;DHT22;2532;52.480;13.354;2023-07-31T13:03:00;23.00;97.40
5027;DHT22;2532;52.480;13.354;2023-07-31T13:05:28;22.90;97.40
5027;DHT22;2532;52.480;13.354;2023-07-31T13:07:56;22.80;97.50
5027;DHT22;2532;52.480;13.354;2023-07-31T13:10:24;22.80;97.70
5027;DHT22;2532;52.480;13.354;2023-07-31T13:12:52;22.80;97.80
5027;DHT22;2532;52.480;13.354;2023-07-31T13:15:19;22.80;97.80
5027;DHT22;2532;52.480;13.354;2023-07-31T13:17:46;22.80;97.70
5027;DHT22;2532;52.480;13.354;2023-07-31T13:20:13;22.80;97.70
5027;DHT22;2532;52.480;13.354;2023-07-31T13:22:39;22.90;97.70
5027;DHT22;2532;52.480;13.354;2023-07-31T13:25:08;22.90;97.70
5027;DHT22;2532;52.480;13.354;2023-07-31T13:27:35;22.90;97.80
5027;DHT22;2532;52.480;13.354;2023-07-31T13:30:03;22.90;97.90
5027;DHT22;2532;52.480;13.354;2023-07-31T13:32:30;22.90;97.80
5027;DHT22;2532;52.480;13.354;2023-07-31T13:34:57;23.00;98.10
5027;DHT22;2532;52.480;13.354;2023-07-31T13:37:24;23.10;97.80
5027;DHT22;2532;52.480;13.354;2023-07-31T13:39:51;23.20;97.70
5027;DHT22;2532;52.480;13.354;2023-07-31T13:42:19;23.30;97.30
5027;DHT22;2532;52.480;13.354;2023-07-31T13:44:46;23.30;97.10
5027;DHT22;2532;52.480;13.354;2023-07-31T13:47:13;23.40;97.20
5027;DHT22;2532;52.480;13.354;2023-07-31T13:49:41;23.60;97.30
5027;DHT22;2532;52.480;13.354;2023-07-31T13:52:09;23.60;97.20
5027;DHT22;2532;52.480;13.354;2023-07-31T13:54:36;23.70;97.20
5027;DHT22;2532;52.480;13.354;2023-07-31T13:57:03;23.60;96.60
5027;DHT22;2532;52.480;13.354;2023-07-31T13:59:31;23.60;96.60
5027;DHT22;2532;52.480;13.354;2023-07-31T14:01:58;23.60;96.70
5027;DHT22;2532;52.480;13.354;2023-07-31T14:04:25;23.60;96.80
5027;DHT22;2532;52.480;13.354;2023-07-31T14:06:52;23.60;96.70
5027;DHT22;2532;52.480;13.354;2023-07-31T14:09:19;23.60;96.80
5027;DHT22;2532;52.480;13.354;2023-07-31T14:11:46;23.60;96.90
5027;DHT22;2532;52.480;13.354;2023-07-31T14:14:12;23.60;97.00
5027;DHT22;2532;52.480;13.354;2023-07-31T14:16:41;23.60;96.90
5027;DHT22;2532;52.480;13.354;2023-07-31T14:19:08;23.60;96.90
5027;DHT22;2532;52.480;13.354;2023-07-31T14:21:35;23.60;96.70
5027;DHT22;2532;52.480;13.354;2023-07-31T14:24:03;23.60;96.70
5027;DHT22;2532;52.480;13.354;2023-07-31T14:26:30;23.60;96.70
5027;DHT22;2532;52.480;13.354;2023-07-31T14:28:57;23.60;96.80
5027;DHT22;2532;52.480;13.354;2023-07-31T14:31:24;23.60;96.80
5027;DHT22;2532;52.480;13.354;2023-07-31T14:33:52;23.60;96.50
5027;DHT22;2532;52.480;13.354;2023-07-31T14:36:19;23.70;96.30
5027;DHT22;2532;52.480;13.354;2023-07-31T14:38:46;23.70;96.20
5027;DHT22;2532;52.480;13.354;2023-07-31T14:41:13;23.70;96.20
5027;DHT22;2532;52.480;13.354;2023-07-31T14:43:40;23.70;96.00
5027;DHT22;2532;52.480;13.354;2023-07-31T14:46:07;23.70;96.10
5027;DHT22;2532;52.480;13.354;2023-07-31T14:48:34;23.70;96.10
5027;DHT22;2532;52.480;13.354;2023-07-31T14:51:02;23.70;95.50
5027;DHT22;2532;52.480;13.354;2023-07-31T14:53:29;23.70;95.20
5027;DHT22;2532;52.480;13.354;2023-07-31T14:55:56;23.70;95.50
5027;DHT22;2532;52.480;13.354;2023-07-31T14:58:23;23.70;95.50
5027;DHT22;2532;52.480;13.354;2023-07-31T15:00:50;23.60;95.50
5027;DHT22;2532;52.480;13.354;2023-07-31T15:03:17;23.60;95.50
5027;DHT22;2532;52.480;13.354;2023-07-31T15:05:44;23.60;95.70
5027;DHT22;2532;52.480;13.354;2023-07-31T15:08:13;23.50;95.60
5027;DHT22;2532;52.480;13.354;2023-07-31T15:10:39;23.60;95.80
5027;DHT22;2532;52.480;13.354;2023-07-31T15:13:06;23.50;95.90
5027;DHT22;2532;52.480;13.354;2023-07-31T15:15:33;23.50;96.10
5027;DHT22;2532;52.480;13.354;2023-07-31T15:18:00;23.50;96.20
5027;DHT22;2532;52.480;13.354;2023-07-31T15:20:28;23.60;96.60
5027;DHT22;2532;52.480;13.354;2023-07-31T15:22:55;23.60;97.10
5027;DHT22;2532;52.480;13.354;2023-07-31T15:25:24;23.60;96.80
5027;DHT22;2532;52.480;13.354;2023-07-31T15:27:51;23.50;96.80
5027;DHT22;2532;52.480;13.354;2023-07-31T15:30:18;23.50;97.30
5027;DHT22;2532;52.480;13.354;2023-07-31T15:32:45;23.40;97.30
5027;DHT22;2532;52.480;13.354;2023-07-31T15:35:14;23.40;97.00
5027;DHT22;2532;52.480;13.354;2023-07-31T15:37:41;23.30;97.40
5027;DHT22;2532;52.480;13.354;2023-07-31T15:40:09;23.30;98.00
5027;DHT22;2532;52.480;13.354;2023-07-31T15:42:37;23.20;98.30
5027;DHT22;2532;52.480;13.354;2023-07-31T15:45:07;23.20;98.50
5027;DHT22;2532;52.480;13.354;2023-07-31T15:47:34;23.20;98.70
5027;DHT22;2532;52.480;13.354;2023-07-31T15:50:01;23.20;98.80
5027;DHT22;2532;52.480;13.354;2023-07-31T15:52:28;23.20;98.90
5027;DHT22;2532;52.480;13.354;2023-07-31T15:54:55;23.20;99.00
5027;DHT22;2532;52.480;13.354;2023-07-31T15:57:21;23.20;99.30
5027;DHT22;2532;52.480;13.354;2023-07-31T15:59:50;23.30;99.60
5027;DHT22;2532;52.480;13.354;2023-07-31T16:02:17;23.30;99.50
5027;DHT22;2532;52.480;13.354;2023-07-31T16:04:44;23.30;99.40
5027;DHT22;2532;52.480;13.354;2023-07-31T16:07:11;23.30;99.10
5027;DHT22;2532;52.480;13.354;2023-07-31T16:09:38;23.40;98.80
5027;DHT22;2532;52.480;13.354;2023-07-31T16:12:06;23.40;98.50
5027;DHT22;2532;52.480;13.354;2023-07-31T16:14:35;23.40;98.80
5027;DHT22;2532;52.480;13.354;2023-07-31T16:17:04;23.40;98.50
5027;DHT22;2532;52.480;13.354;2023-07-31T16:19:31;23.40;98.30
5027;DHT22;2532;52.480;13.354;2023-07-31T16:22:04;23.30;97.50
5027;DHT22;2532;52.480;13.354;2023-07-31T16:24:31;23.20;97.10
5027;DHT22;2532;52.480;13.354;2023-07-31T16:26:59;23.20;97.00
5027;DHT22;2532;52.480;13.354;2023-07-31T16:29:25;23.10;97.00
5027;DHT22;2532;52.480;13.354;2023-07-31T16:31:52;23.10;97.00
5027;DHT22;2532;52.480;13.354;2023-07-31T16:34:21;23.00;97.00
5027;DHT22;2532;52.480;13.354;2023-07-31T16:36:49;23.00;96.90
5027;DHT22;2532;52.480;13.354;2023-07-31T16:39:16;23.00;97.10
5027;DHT22;2532;52.480;13.354;2023-07-31T16:41:43;23.00;97.00
5027;DHT22;2532;52.480;13.354;2023-07-31T16:44:10;23.00;97.00
5027;DHT22;2532;52.480;13.354;2023-07-31T16:46:37;23.00;96.90
5027;DHT22;2532;52.480;13.354;2023-07-31T16:49:04;23.00;97.10
5027;DHT22;2532;52.480;13.354;2023-07-31T16:51:33;23.00;96.90
5027;DHT22;2532;52.480;13.354;2023-07-31T16:54:00;23.00;96.80
5027;DHT22;2532;52.480;13.354;2023-07-31T16:56:26;23.10;96.80
5027;DHT22;2532;52.480;13.354;2023-07-31T16:58:53;23.10;96.90
5027;DHT22;2532;52.480;13.354;2023-07-31T17:01:21;23.10;96.80
5027;DHT22;2532;52.480;13.354;2023-07-31T17:03:51;23.10;96.80
5027;DHT22;2532;52.480;13.354;2023-07-31T17:06:18;23.10;96.70
5027;DHT22;2532;52.480;13.354;2023-07-31T17:08:46;23.20;96.70
5027;DHT22;2532;52.480;13.354;2023-07-31T17:11:13;23.20;96.70
5027;DHT22;2532;52.480;13.354;2023-07-31T17:13:40;23.10;96.70
5027;DHT22;2532;52.480;13.354;2023-07-31T17:16:06;23.20;96.70
5027;DHT22;2532;52.480;13.354;2023-07-31T17:18:33;23.10;96.80
5027;DHT22;2532;52.480;13.354;2023-07-31T17:21:00;23.10;96.80
5027;DHT22;2532;52.480;13.354;2023-07-31T17:23:28;23.10;96.90
5027;DHT22;2532;52.480;13.354;2023-07-31T17:25:56;23.10;97.00
5027;DHT22;2532;52.480;13.354;2023-07-31T17:28:23;23.10;97.00
5027;DHT22;2532;52.480;13.354;2023-07-31T17:30:50;23.10;96.90
5027;DHT22;2532;52.480;13.354;2023-07-31T17:33:17;23.10;97.60
5027;DHT22;2532;52.480;13.354;2023-07-31T17:35:44;23.00;98.40
5027;DHT22;2532;52.480;13.354;2023-07-31T17:38:11;22.80;99.10
5027;DHT22;2532;52.480;13.354;2023-07-31T17:40:38;22.70;99.30
5027;DHT22;2532;52.480;13.354;2023-07-31T17:43:06;22.50;99.70
5027;DHT22;2532;52.480;13.354;2023-07-31T17:45:33;22.40;99.90
5027;DHT22;2532;52.480;13.354;2023-07-31T17:48:00;22.40;99.90
5027;DHT22;2532;52.480;13.354;2023-07-31T17:50:27;22.30;99.90
5027;DHT22;2532;52.480;13.354;2023-07-31T17:52:55;22.20;99.90
5027;DHT22;2532;52.480;13.354;2023-07-31T17:55:22;22.10;99.90
5027;DHT22;2532;52.480;13.354;2023-07-31T17:57:49;22.10;99.90
5027;DHT22;2532;52.480;13.354;2023-07-31T18:00:19;22.00;99.90
5027;DHT22;2532;52.480;13.354;2023-07-31T18:02:48;22.00;99.90
5027;DHT22;2532;52.480;13.354;2023-07-31T18:05:15;22.00;99.90
5027;DHT22;2532;52.480;13.354;2023-07-31T18:07:42;22.00;99.90
5027;DHT22;2532;52.480;13.354;2023-07-31T18:10:09;21.90;99.90
5027;DHT22;2532;52.480;13.354;2023-07-31T18:12:36;22.00;99.90
5027;DHT22;2532;52.480;13.354;2023-07-31T18:15:04;21.90;99.90
5027;DHT22;2532;52.480;13.354;2023-07-31T18:17:33;22.00;99.90
5027;DHT22;2532;52.480;13.354;2023-07-31T18:20:00;22.00;99.90
5027;DHT22;2532;52.480;13.354;2023-07-31T18:22:27;22.00;99.90
5027;DHT22;2532;52.480;13.354;2023-07-31T18:24:54;22.00;99.90
5027;DHT22;2532;52.480;13.354;2023-07-31T18:27:20;22.00;99.90
5027;DHT22;2532;52.480;13.354;2023-07-31T18:29:49;22.00;99.90
5027;DHT22;2532;52.480;13.354;2023-07-31T18:32:16;22.00;99.70
5027;DHT22;2532;52.480;13.354;2023-07-31T18:34:44;22.00;99.70
5027;DHT22;2532;52.480;13.354;2023-07-31T18:37:11;22.00;99.40
5027;DHT22;2532;52.480;13.354;2023-07-31T18:39:38;22.00;99.40
5027;DHT22;2532;52.480;13.354;2023-07-31T18:42:06;22.00;99.20
5027;DHT22;2532;52.480;13.354;2023-07-31T18:44:33;22.00;99.20
5027;DHT22;2532;52.480;13.354;2023-07-31T18:47:01;22.00;99.20
5027;DHT22;2532;52.480;13.354;2023-07-31T18:49:28;22.10;99.20
5027;DHT22;2532;52.480;13.354;2023-07-31T18:51:56;22.10;99.20
5027;DHT22;2532;52.480;13.354;2023-07-31T18:54:23;22.10;99.10
5027;DHT22;2532;52.480;13.354;2023-07-31T18:56:50;22.00;99.00
5027;DHT22;2532;52.480;13.354;2023-07-31T18:59:17;22.10;99.10
5027;DHT22;2532;52.480;13.354;2023-07-31T19:01:44;22.10;99.00
5027;DHT22;2532;52.480;13.354;2023-07-31T19:04:11;22.00;99.00
5027;DHT22;2532;52.480;13.354;2023-07-31T19:06:38;22.10;99.10
5027;DHT22;2532;52.480;13.354;2023-07-31T19:09:09;22.00;99.00
5027;DHT22;2532;52.480;13.354;2023-07-31T19:11:36;22.00;99.40
5027;DHT22;2532;52.480;13.354;2023-07-31T19:14:05;22.00;99.10
5027;DHT22;2532;52.480;13.354;2023-07-31T19:16:32;21.90;99.10
5027;DHT22;2532;52.480;13.354;2023-07-31T19:18:58;21.90;99.20
5027;DHT22;2532;52.480;13.354;2023-07-31T19:21:25;21.90;99.20
5027;DHT22;2532;52.480;13.354;2023-07-31T19:23:52;22.00;99.30
5027;DHT22;2532;52.480;13.354;2023-07-31T19:26:21;21.90;99.30
5027;DHT22;2532;52.480;13.354;2023-07-31T19:28:48;21.90;99.30
5027;DHT22;2532;52.480;13.354;2023-07-31T19:31:14;21.90;99.40
5027;DHT22;2532;52.480;13.354;2023-07-31T19:33:41;21.90;99.40
5027;DHT22;2532;52.480;13.354;2023-07-31T19:36:08;21.80;99.50
5027;DHT22;2532;52.480;13.354;2023-07-31T19:38:35;21.80;99.50
5027;DHT22;2532;52.480;13.354;2023-07-31T19:41:02;21.80;99.60
5027;DHT22;2532;52.480;13.354;2023-07-31T19:43:31;21.80;99.70
5027;DHT22;2532;52.480;13.354;2023-07-31T19:45:58;21.80;99.70
5027;DHT22;2532;52.480;13.354;2023-07-31T19:48:25;21.70;99.70